Bassfield, Mississippi
Current Conditions -  °F | °C
As of 2:55 PM on Tuesday 21 Oct 2014 (Local Time) from KPIB Reporting Station
Clear Clear  
Wind Chill: 81°   Ceiling: Unl
Heat Index: 81°   Visibility: 10mi
Dew Point: 54°   Wind: 7mph
Humidity: 39%   Direction: 20°NNE
Pressure: 30.03"   Gusts: NA
Location:  31.5°N, 89.74°W
Report Text: KPIB 211955Z AUTO 02006KT 10SM CLR 27/12 A3003 RMK AO1
Loading
Personal Weather Stations






























Interactive Weather Map
Tropical Storm Tracking
New forecast layout! Learn more

10-Day Weather Forecast

Advertisements
Track Severe Weather on mobile